Time;durP1;ratioP1;P1;durP2;ratioP2;P2;SDS_P1;SDS_P2;PMS_P1;PMS_P2;Temp;Humidity;BMP_temperature;BMP_pressure;BME280_temperature;BME280_humidity;BME280_pressure;Samples;Min_cycle;Max_cycle;Signal;HPM_P1;HPM_P2
2022/07/02 00:01:49;;;;;;;7.40;2.67;;;14.80;99.90;;;;;;6297590;28;20507;-72
2022/07/02 00:05:00;;;;;;;4.43;2.47;;;14.70;99.90;;;;;;6293974;28;20055;-72
2022/07/02 00:08:04;;;;;;;3.58;2.40;;;14.80;99.90;;;;;;6298591;28;20051;-73
2022/07/02 00:11:06;;;;;;;3.30;2.42;;;14.80;99.90;;;;;;6297483;28;20052;-73
2022/07/02 00:14:10;;;;;;;5.43;2.53;;;14.90;99.90;;;;;;6298699;28;20048;-73
2022/07/02 00:17:12;;;;;;;;;;;14.80;99.90;;;;;;6298834;28;20044;-72
2022/07/02 00:20:14;;;;;;;6.35;2.90;;;14.80;99.90;;;;;;6297194;28;19920;-72
2022/07/02 00:23:17;;;;;;;3.65;2.80;;;14.70;99.90;;;;;;6297657;28;20538;-72
2022/07/02 00:26:22;;;;;;;5.22;2.80;;;14.70;99.90;;;;;;6297493;28;20489;-72
2022/07/02 00:29:34;;;;;;;6.85;2.50;;;14.60;99.90;;;;;;6297726;28;20048;-72
2022/07/02 00:32:37;;;;;;;5.53;2.85;;;14.60;99.90;;;;;;6297905;28;20052;-72
2022/07/02 00:35:40;;;;;;;5.87;2.90;;;14.60;99.90;;;;;;6298100;28;20048;-72
2022/07/02 00:38:41;;;;;;;6.07;3.10;;;14.60;99.90;;;;;;6296148;28;20083;-72
2022/07/02 00:41:44;;;;;;;4.30;2.92;;;14.60;99.90;;;;;;6296499;28;20053;-72
2022/07/02 00:44:48;;;;;;;5.55;2.70;;;14.70;99.90;;;;;;6296408;28;20044;-72
2022/07/02 00:47:51;;;;;;;5.72;3.10;;;14.60;99.90;;;;;;6297191;28;20041;-72
2022/07/02 00:50:53;;;;;;;7.68;3.20;;;14.60;99.90;;;;;;6296235;28;20056;-72
2022/07/02 00:53:55;;;;;;;8.43;3.47;;;14.50;99.90;;;;;;6297294;28;20056;-72
2022/07/02 00:56:58;;;;;;;5.97;2.75;;;14.50;99.90;;;;;;6297274;28;20048;-72
2022/07/02 01:00:01;;;;;;;5.57;3.17;;;14.50;99.90;;;;;;6296058;28;20048;-72
2022/07/02 01:03:04;;;;;;;7.40;2.83;;;14.40;99.90;;;;;;6286632;28;20132;-72
2022/07/02 01:06:06;;;;;;;10.80;3.20;;;14.40;99.90;;;;;;6271171;28;20045;-73
2022/07/02 01:12:30;;;;;;;5.30;3.30;;;14.50;99.90;;;;;;6279290;28;20057;-72
2022/07/02 01:15:34;;;;;;;6.10;2.95;;;14.50;99.90;;;;;;6295938;28;20460;-72
2022/07/02 01:18:37;;;;;;;7.07;3.00;;;14.50;99.90;;;;;;6295497;28;20052;-72
2022/07/02 01:21:39;;;;;;;6.93;2.45;;;14.50;99.90;;;;;;6296988;28;20048;-72
2022/07/02 01:24:43;;;;;;;6.22;3.20;;;14.60;99.90;;;;;;6296532;28;20086;-72
2022/07/02 01:27:45;;;;;;;5.68;2.85;;;14.60;99.90;;;;;;6295181;28;20515;-72
2022/07/02 01:30:47;;;;;;;4.82;2.92;;;14.60;99.90;;;;;;6296697;28;20045;-72
2022/07/02 01:33:49;;;;;;;5.22;3.22;;;14.60;99.90;;;;;;6296621;28;20501;-72
2022/07/02 01:36:51;;;;;;;6.25;3.00;;;14.50;99.90;;;;;;6296005;28;20482;-72
2022/07/02 01:39:54;;;;;;;6.35;3.25;;;14.40;99.90;;;;;;6296237;28;20052;-72
2022/07/02 01:42:56;;;;;;;7.82;3.63;;;14.50;99.90;;;;;;6296555;28;20102;-72
2022/07/02 01:45:58;;;;;;;5.15;2.53;;;14.50;99.90;;;;;;6294909;28;20539;-72
2022/07/02 01:49:00;;;;;;;6.30;3.38;;;14.40;99.90;;;;;;6295566;28;20044;-72
2022/07/02 01:52:03;;;;;;;8.55;3.53;;;14.40;99.90;;;;;;6295158;28;20048;-72
2022/07/02 01:55:07;;;;;;;6.47;3.37;;;14.30;99.90;;;;;;6295066;28;20052;-72
2022/07/02 01:58:09;;;;;;;7.13;3.38;;;14.30;99.90;;;;;;6296324;28;20048;-72
2022/07/02 02:01:11;;;;;;;8.60;3.03;;;14.30;99.90;;;;;;6296169;28;20063;-72
2022/07/02 02:04:13;;;;;;;6.35;3.28;;;14.20;99.90;;;;;;6285846;28;20049;-72
2022/07/02 02:07:15;;;;;;;5.90;3.15;;;14.20;99.90;;;;;;6291871;28;20049;-72
2022/07/02 02:10:18;;;;;;;6.78;3.00;;;14.30;99.90;;;;;;6296308;28;20045;-72
2022/07/02 02:13:20;;;;;;;6.70;3.15;;;14.30;99.90;;;;;;6296153;28;20053;-72
2022/07/02 02:16:22;;;;;;;4.75;2.50;;;14.30;99.90;;;;;;6295742;28;20113;-72
2022/07/02 02:19:24;;;;;;;5.78;3.30;;;14.40;99.90;;;;;;6295718;28;20413;-72
2022/07/02 02:22:26;;;;;;;4.82;3.05;;;14.60;99.90;;;;;;6294800;28;20056;-72
2022/07/02 02:25:29;;;;;;;7.93;3.55;;;14.60;99.90;;;;;;6294420;28;20416;-72
2022/07/02 02:28:31;;;;;;;6.20;3.00;;;14.40;99.90;;;;;;6294691;28;20056;-72
2022/07/02 02:31:33;;;;;;;8.25;3.58;;;14.20;99.90;;;;;;6287508;28;20072;-72
2022/07/02 02:34:35;;;;;;;8.15;3.55;;;14.00;99.90;;;;;;6269677;28;20053;-72
2022/07/02 02:37:37;;;;;;;6.72;3.88;;;14.00;99.90;;;;;;6279020;28;20044;-72
2022/07/02 02:40:40;;;;;;;6.55;3.80;;;13.90;99.90;;;;;;6295731;28;20687;-72
2022/07/02 02:43:43;;;;;;;8.10;3.60;;;13.90;99.90;;;;;;6295993;28;20052;-72
2022/07/02 02:46:44;;;;;;;6.20;3.53;;;13.80;99.90;;;;;;6295600;28;20037;-72
2022/07/02 02:49:46;;;;;;;7.75;3.47;;;13.80;99.90;;;;;;6300064;28;20494;-72
2022/07/02 02:52:48;;;;;;;5.25;3.10;;;14.00;99.90;;;;;;6299291;28;20442;-73
2022/07/02 02:55:52;;;;;;;6.80;3.20;;;14.10;99.90;;;;;;6299046;28;20409;-72
2022/07/02 02:58:53;;;;;;;7.80;3.90;;;14.00;99.90;;;;;;6298680;28;20045;-72
2022/07/02 03:01:55;;;;;;;9.75;3.90;;;14.00;99.90;;;;;;6290571;28;20045;-72
2022/07/02 03:04:57;;;;;;;8.35;4.13;;;13.90;99.90;;;;;;6299165;28;20485;-72
2022/07/02 03:07:59;;;;;;;8.18;3.92;;;13.80;99.90;;;;;;6299708;28;20051;-72
2022/07/02 03:11:03;;;;;;;7.55;3.70;;;13.70;99.90;;;;;;6298404;28;20049;-72
2022/07/02 03:14:05;;;;;;;7.75;3.83;;;13.70;99.90;;;;;;6300070;28;20048;-72
2022/07/02 03:17:06;;;;;;;9.02;4.15;;;13.60;99.90;;;;;;6299269;28;20059;-72
2022/07/02 03:20:09;;;;;;;8.98;3.78;;;13.60;99.90;;;;;;6299386;28;20049;-71
2022/07/02 03:23:11;;;;;;;9.68;4.93;;;13.50;99.90;;;;;;6315493;28;20071;-71
2022/07/02 03:26:15;;;;;;;11.65;4.60;;;13.40;99.90;;;;;;6299038;28;20440;-71
2022/07/02 03:29:17;;;;;;;9.57;4.53;;;13.30;99.90;;;;;;6298704;28;20059;-72
2022/07/02 03:32:18;;;;;;;10.35;5.20;;;13.30;99.90;;;;;;6290886;28;20513;-71
2022/07/02 03:35:20;;;;;;;9.45;6.30;;;13.20;99.90;;;;;;6273011;28;20049;-72
2022/07/02 03:38:22;;;;;;;11.32;8.32;;;13.20;99.90;;;;;;6273357;28;20508;-72
2022/07/02 03:41:26;;;;;;;7.75;5.75;;;13.20;99.90;;;;;;6274646;28;20045;-72
2022/07/02 03:44:28;;;;;;;7.18;5.10;;;13.20;99.90;;;;;;6273996;28;20136;-71
2022/07/02 03:47:30;;;;;;;11.73;5.80;;;13.20;99.90;;;;;;6296235;28;20056;-71
2022/07/02 03:50:31;;;;;;;8.07;4.80;;;13.20;99.90;;;;;;6298906;28;20060;-72
2022/07/02 03:53:33;;;;;;;10.98;8.93;;;13.20;99.90;;;;;;6298607;28;20048;-72
2022/07/02 03:56:37;;;;;;;7.88;3.30;;;13.10;99.90;;;;;;6299045;28;20044;-72
2022/07/02 03:59:38;;;;;;;12.23;5.57;;;13.20;99.90;;;;;;6294254;28;20052;-72
2022/07/02 04:02:40;;;;;;;8.73;5.63;;;13.30;99.90;;;;;;6280085;28;20052;-72
2022/07/02 04:05:42;;;;;;;9.68;5.00;;;13.30;99.90;;;;;;6298343;28;20445;-72
2022/07/02 04:08:44;;;;;;;8.15;5.10;;;13.40;99.90;;;;;;6298328;28;20512;-72
2022/07/02 04:11:47;;;;;;;13.02;5.45;;;13.50;99.90;;;;;;6298754;28;20044;-72
2022/07/02 04:14:50;;;;;;;8.50;4.63;;;13.50;99.90;;;;;;6298496;28;20055;-72
2022/07/02 04:17:52;;;;;;;6.57;4.57;;;13.60;99.90;;;;;;6297746;28;20068;-71
2022/07/02 04:20:53;;;;;;;10.63;5.07;;;13.70;99.90;;;;;;6298319;28;20045;-72
2022/07/02 04:23:56;;;;;;;9.98;4.80;;;13.80;99.90;;;;;;6297758;28;20082;-72
2022/07/02 04:26:59;;;;;;;7.50;5.15;;;13.80;99.90;;;;;;6297023;28;20055;-72
2022/07/02 04:30:01;;;;;;;9.30;5.43;;;13.80;99.90;;;;;;6298144;28;20056;-73
2022/07/02 04:33:03;;;;;;;11.32;5.78;;;13.80;99.90;;;;;;6296810;28;20086;-72
2022/07/02 04:36:06;;;;;;;4.93;3.50;;;13.80;99.90;;;;;;6296412;28;20059;-71
2022/07/02 04:39:08;;;;;;;10.52;5.45;;;13.80;99.90;;;;;;6296141;28;20049;-72
2022/07/02 04:42:11;;;;;;;11.43;5.28;;;13.80;99.90;;;;;;6296867;28;20059;-71
2022/07/02 04:45:13;;;;;;;14.25;6.80;;;13.70;99.90;;;;;;6297289;28;20048;-71
2022/07/02 04:48:15;;;;;;;3.42;2.22;;;13.70;99.90;;;;;;6297210;28;20040;-71
2022/07/02 04:51:17;;;;;;;8.90;5.80;;;13.70;99.90;;;;;;6297338;28;20045;-72
2022/07/02 04:54:19;;;;;;;9.32;5.45;;;13.80;99.90;;;;;;6297263;28;20055;-72
2022/07/02 04:57:22;;;;;;;11.18;4.07;;;13.90;99.90;;;;;;6296995;28;20055;-72
2022/07/02 05:00:24;;;;;;;12.00;5.63;;;14.20;99.90;;;;;;6278008;28;20049;-72
2022/07/02 05:03:26;;;;;;;8.60;6.25;;;14.30;99.90;;;;;;6272048;28;20409;-72
2022/07/02 05:06:28;;;;;;;9.85;6.05;;;14.30;99.90;;;;;;6272307;28;20048;-71
2022/07/02 05:09:30;;;;;;;13.38;5.90;;;14.40;99.90;;;;;;6271567;28;20086;-72
2022/07/02 05:12:33;;;;;;;9.95;6.03;;;14.90;99.90;;;;;;6295662;28;20040;-72
2022/07/02 05:15:35;;;;;;;9.05;5.47;;;15.20;99.90;;;;;;6295588;28;20044;-72
2022/07/02 05:18:37;;;;;;;6.82;4.25;;;15.60;99.90;;;;;;6296559;28;20762;-72
2022/07/02 05:21:41;;;;;;;6.63;5.40;;;16.30;99.90;;;;;;6295794;28;20057;-72
2022/07/02 05:24:43;;;;;;;6.20;4.70;;;16.70;99.90;;;;;;6295238;28;20529;-72
2022/07/02 05:27:46;;;;;;;10.45;5.38;;;16.50;99.90;;;;;;6296592;28;20041;-72
2022/07/02 05:30:48;;;;;;;10.57;4.82;;;16.50;99.90;;;;;;6296650;28;20485;-72
2022/07/02 05:33:50;;;;;;;7.82;4.03;;;16.30;99.90;;;;;;6296779;28;20076;-72
2022/07/02 05:36:52;;;;;;;5.40;2.92;;;16.20;99.90;;;;;;6295561;28;20076;-72
2022/07/02 05:39:54;;;;;;;5.60;3.67;;;16.40;99.90;;;;;;6295498;28;20052;-72
2022/07/02 05:42:57;;;;;;;6.40;5.03;;;16.50;99.90;;;;;;6295078;28;20052;-72
2022/07/02 05:46:00;;;;;;;9.65;5.95;;;16.50;99.90;;;;;;6295714;28;20052;-73
2022/07/02 05:49:02;;;;;;;10.80;4.85;;;16.50;99.90;;;;;;6296484;28;20044;-72
2022/07/02 05:52:04;;;;;;;3.75;1.52;;;16.60;99.90;;;;;;6296165;28;20208;-72
2022/07/02 05:55:07;;;;;;;7.68;4.28;;;16.90;99.90;;;;;;6296305;28;20055;-72
2022/07/02 05:58:12;;;;;;;5.33;3.13;;;17.30;99.90;;;;;;6295165;28;20539;-72
2022/07/02 06:01:14;;;;;;;6.78;4.60;;;17.40;99.90;;;;;;6295119;28;20093;-72
2022/07/02 06:04:15;;;;;;;5.60;2.03;;;17.50;99.90;;;;;;6284542;28;20053;-72
2022/07/02 06:10:36;;;;;;;9.10;4.00;;;17.40;99.90;;;;;;6296575;28;20128;-72
2022/07/02 06:13:40;;;;;;;7.88;4.18;;;17.60;99.90;;;;;;6295806;28;20401;-72
2022/07/02 06:16:42;;;;;;;8.15;3.80;;;17.70;99.90;;;;;;6294644;28;20048;-72
2022/07/02 06:19:47;;;;;;;4.88;2.35;;;18.10;99.90;;;;;;6295034;28;20052;-72
2022/07/02 06:22:49;;;;;;;5.13;2.25;;;18.20;99.90;;;;;;6298077;28;20041;-72
2022/07/02 06:25:51;;;;;;;3.17;1.90;;;18.20;99.90;;;;;;6300564;28;20060;-72
2022/07/02 06:28:54;;;;;;;5.68;2.25;;;18.20;99.90;;;;;;6300647;28;20052;-72
2022/07/02 06:31:56;;;;;;;6.32;2.95;;;18.70;99.90;;;;;;6300742;28;20079;-72
2022/07/02 06:34:58;;;;;;;6.82;2.83;;;18.90;99.90;;;;;;6300364;28;20090;-73
2022/07/02 06:38:00;;;;;;;5.45;2.10;;;19.10;99.90;;;;;;6300480;28;20049;-72
2022/07/02 06:42:18;;;;;;;5.53;2.13;;;19.10;99.90;;;;;;6299645;28;20063;-72
2022/07/02 06:44:25;;;;;;;2.53;1.00;;;19.20;99.90;;;;;;6293558;28;20425;-72
2022/07/02 06:47:29;;;;;;;6.15;2.58;;;19.00;99.90;;;;;;6274522;28;20057;-73
2022/07/02 06:50:31;;;;;;;4.82;2.10;;;19.10;99.90;;;;;;6275309;28;20045;-73
2022/07/02 06:53:33;;;;;;;2.60;1.08;;;19.20;99.90;;;;;;6290148;28;20064;-73
2022/07/02 06:56:36;;;;;;;2.25;1.05;;;19.20;99.90;;;;;;6299971;28;20537;-73
2022/07/02 06:59:39;;;;;;;3.08;1.48;;;19.50;99.90;;;;;;6300025;28;20110;-73
2022/07/02 07:02:41;;;;;;;3.28;1.55;;;19.90;99.90;;;;;;6299388;28;20482;-73
2022/07/02 07:05:46;;;;;;;4.88;1.52;;;20.00;99.90;;;;;;6298546;28;20482;-73
2022/07/02 07:08:52;;;;;;;3.22;1.60;;;20.10;99.90;;;;;;6299533;28;20093;-73
2022/07/02 07:11:54;;;;;;;4.35;1.40;;;20.30;99.90;;;;;;6300119;28;20048;-73
2022/07/02 07:15:03;;;;;;;2.40;1.00;;;20.70;99.90;;;;;;6299704;28;20048;-73
2022/07/02 07:18:05;;;;;;;2.63;0.98;;;21.20;99.90;;;;;;6298259;28;20409;-73
2022/07/02 07:21:07;;;;;;;2.60;0.80;;;21.80;99.90;;;;;;6299796;28;20049;-73
2022/07/02 07:24:10;;;;;;;5.47;1.30;;;22.10;99.90;;;;;;6299192;28;20049;-73
2022/07/02 07:27:12;;;;;;;3.92;1.20;;;22.40;99.20;;;;;;6299094;28;20408;-73
2022/07/02 07:30:15;;;;;;;3.60;1.00;;;22.50;99.20;;;;;;6299571;28;20051;-73
2022/07/02 07:33:17;;;;;;;3.40;1.30;;;22.60;99.00;;;;;;6298909;28;20044;-73
2022/07/02 07:36:20;;;;;;;3.17;0.93;;;22.60;98.80;;;;;;6297789;28;20520;-73
2022/07/02 07:39:22;;;;;;;1.70;0.75;;;22.70;98.20;;;;;;6299468;28;20055;-73
2022/07/02 07:42:25;;;;;;;2.47;0.68;;;22.70;98.70;;;;;;6299565;28;20139;-72
2022/07/02 07:45:28;;;;;;;1.75;0.70;;;22.90;96.60;;;;;;6297363;28;20049;-72
2022/07/02 07:48:30;;;;;;;2.33;0.82;;;23.10;97.40;;;;;;6297683;28;20438;-72
2022/07/02 07:51:32;;;;;;;3.78;0.75;;;23.20;97.10;;;;;;6298822;28;20047;-73
2022/07/02 07:54:34;;;;;;;4.03;0.80;;;23.20;96.90;;;;;;6298769;28;20044;-72
2022/07/02 07:57:36;;;;;;;3.55;0.80;;;23.30;96.70;;;;;;6298991;28;20044;-71
2022/07/02 08:00:40;;;;;;;2.83;0.90;;;23.30;96.20;;;;;;6298427;28;20504;-72
2022/07/02 08:03:42;;;;;;;;;;;23.30;95.50;;;;;;6298287;28;20040;-72
2022/07/02 08:06:43;;;;;;;1.50;0.63;;;23.10;94.60;;;;;;6298501;28;19943;-72
2022/07/02 08:09:52;;;;;;;1.75;0.80;;;23.10;96.10;;;;;;6297297;28;20049;-73
2022/07/02 08:12:54;;;;;;;2.70;1.05;;;23.20;96.10;;;;;;6298520;28;20059;-72
2022/07/02 08:15:59;;;;;;;2.10;0.50;;;23.20;95.20;;;;;;6297272;28;20045;-72
2022/07/02 08:19:02;;;;;;;4.18;1.00;;;23.30;96.20;;;;;;6297743;28;20425;-72
2022/07/02 08:22:04;;;;;;;3.05;1.02;;;23.20;95.00;;;;;;6298547;28;20131;-73
2022/07/02 08:25:08;;;;;;;2.50;1.05;;;23.30;95.20;;;;;;6297486;28;20514;-72
2022/07/02 08:28:10;;;;;;;2.15;0.70;;;23.30;95.20;;;;;;6298058;28;20056;-72
2022/07/02 08:31:13;;;;;;;2.35;0.80;;;23.30;95.60;;;;;;6298391;28;20040;-72
2022/07/02 08:34:16;;;;;;;2.03;0.90;;;23.40;94.90;;;;;;6296609;28;20057;-72
2022/07/02 08:37:18;;;;;;;2.75;0.90;;;23.40;94.90;;;;;;6297549;28;20486;-72
2022/07/02 08:40:23;;;;;;;2.40;0.90;;;23.30;95.40;;;;;;6297650;28;20064;-73
2022/07/02 08:43:27;;;;;;;1.80;0.70;;;23.20;95.70;;;;;;6297729;28;20036;-72
2022/07/02 08:46:31;;;;;;;2.85;0.88;;;23.20;95.20;;;;;;6295532;28;20129;-72
2022/07/02 08:49:34;;;;;;;2.05;0.70;;;23.20;95.20;;;;;;6297869;28;20052;-72
2022/07/02 08:52:40;;;;;;;1.95;0.57;;;23.30;95.70;;;;;;6297645;28;20052;-73
2022/07/02 08:55:42;;;;;;;2.22;0.77;;;23.50;95.30;;;;;;6290616;28;20045;-72
2022/07/02 08:58:45;;;;;;;2.03;0.50;;;23.50;94.30;;;;;;6272712;28;20044;-72
2022/07/02 09:01:49;;;;;;;1.65;0.73;;;23.40;95.10;;;;;;6271175;28;20052;-72
2022/07/02 09:04:52;;;;;;;1.77;0.70;;;23.30;94.30;;;;;;6294298;28;20059;-72
2022/07/02 09:07:56;;;;;;;2.28;0.80;;;23.20;95.20;;;;;;6295462;28;20044;-72
2022/07/02 09:10:59;;;;;;;1.63;0.77;;;23.20;95.00;;;;;;6297413;28;20084;-73
2022/07/02 09:14:02;;;;;;;1.42;0.75;;;23.20;95.70;;;;;;6296908;28;20055;-72
2022/07/02 09:17:06;;;;;;;2.88;0.85;;;23.20;93.40;;;;;;6296624;28;20052;-72
2022/07/02 09:20:09;;;;;;;1.50;0.73;;;23.10;94.40;;;;;;6295744;28;20075;-72
2022/07/02 09:23:20;;;;;;;1.35;0.75;;;23.20;94.60;;;;;;6293556;28;20059;-73
2022/07/02 09:26:24;;;;;;;1.85;0.73;;;23.10;95.40;;;;;;6286167;28;20056;-73
2022/07/02 09:29:26;;;;;;;1.20;0.55;;;23.10;94.80;;;;;;6296813;28;20102;-72
2022/07/02 09:32:39;;;;;;;3.50;0.80;;;23.30;94.30;;;;;;6296703;28;20067;-72
2022/07/02 09:35:41;;;;;;;2.25;0.93;;;23.40;94.70;;;;;;6296461;28;20055;-72
2022/07/02 09:38:43;;;;;;;1.30;1.20;;;23.20;93.10;;;;;;6295669;28;20049;-72
2022/07/02 09:41:45;;;;;;;1.80;0.40;;;23.20;93.70;;;;;;6295995;28;20425;-72
2022/07/02 09:44:48;;;;;;;2.35;1.67;;;23.30;94.80;;;;;;6295042;28;20055;-72
2022/07/02 09:47:51;;;;;;;2.45;1.58;;;23.50;92.50;;;;;;6294814;28;20048;-72
2022/07/02 09:50:53;;;;;;;2.15;0.80;;;23.40;91.70;;;;;;6295723;28;20485;-72
2022/07/02 09:53:56;;;;;;;1.08;0.70;;;23.30;93.70;;;;;;6296506;28;20051;-72
2022/07/02 09:56:59;;;;;;;1.48;0.55;;;23.40;94.00;;;;;;6294086;28;20044;-72
2022/07/02 10:00:06;;;;;;;0.82;0.65;;;23.40;93.80;;;;;;6294642;28;20052;-73
2022/07/02 10:03:09;;;;;;;1.80;1.10;;;23.40;92.30;;;;;;6293957;28;20524;-72
2022/07/02 10:06:11;;;;;;;;;;;23.40;92.70;;;;;;6295355;28;20485;-73
2022/07/02 10:09:15;;;;;;;1.67;0.80;;;23.50;93.10;;;;;;6296255;28;19927;-73
2022/07/02 10:12:18;;;;;;;1.92;0.90;;;23.50;92.90;;;;;;6295261;28;20395;-73
2022/07/02 10:15:22;;;;;;;1.80;0.68;;;23.60;93.50;;;;;;6294991;28;20049;-72
2022/07/02 10:18:26;;;;;;;0.57;0.50;;;23.80;92.00;;;;;;6295012;28;20075;-73
2022/07/02 10:21:29;;;;;;;0.70;0.50;;;23.90;92.60;;;;;;6296409;28;20061;-73
2022/07/02 10:24:32;;;;;;;0.85;0.35;;;24.00;93.30;;;;;;6284546;28;20107;-72
2022/07/02 10:27:35;;;;;;;1.48;0.35;;;24.00;92.50;;;;;;6271223;28;20481;-72
2022/07/02 10:30:38;;;;;;;1.08;0.32;;;24.10;93.40;;;;;;6270870;28;20129;-72
2022/07/02 10:33:47;;;;;;;1.50;0.30;;;24.10;92.50;;;;;;6279606;28;20414;-72
2022/07/02 10:36:49;;;;;;;1.13;0.50;;;24.20;93.00;;;;;;6294759;28;20413;-72
2022/07/02 10:40:01;;;;;;;0.73;0.22;;;24.20;91.60;;;;;;6295787;28;20140;-72
2022/07/02 10:43:03;;;;;;;0.25;0.10;;;24.20;91.50;;;;;;6294656;28;20122;-72
2022/07/02 10:46:07;;;;;;;1.40;0.40;;;24.20;91.10;;;;;;6295908;28;20060;-72
2022/07/02 10:49:11;;;;;;;1.20;0.35;;;24.20;91.30;;;;;;6294205;28;20086;-72
2022/07/02 10:52:13;;;;;;;1.17;0.28;;;24.10;92.30;;;;;;6292946;28;20139;-73
2022/07/02 10:55:25;;;;;;;2.28;0.50;;;24.00;91.70;;;;;;6271193;28;20492;-72
2022/07/02 10:58:28;;;;;;;0.75;0.28;;;24.10;92.30;;;;;;6270976;28;20053;-72
2022/07/02 11:01:30;;;;;;;0.95;0.25;;;24.40;92.40;;;;;;6269277;28;20053;-72
2022/07/02 11:04:34;;;;;;;1.65;0.20;;;24.50;92.00;;;;;;6289968;28;20095;-72
2022/07/02 11:07:43;;;;;;;3.00;0.38;;;24.60;91.40;;;;;;6293980;28;20056;-72
2022/07/02 11:10:49;;;;;;;0.40;0.20;;;24.60;91.60;;;;;;6300051;28;20051;-72
2022/07/02 11:13:56;;;;;;;1.08;0.30;;;24.60;90.70;;;;;;6300179;28;20049;-72
2022/07/02 11:16:58;;;;;;;0.57;0.20;;;24.60;91.60;;;;;;6299448;28;20056;-71
2022/07/02 11:20:02;;;;;;;2.28;0.30;;;24.70;91.50;;;;;;6299408;28;20079;-72
2022/07/02 11:23:04;;;;;;;3.25;0.50;;;24.70;91.30;;;;;;6299251;28;20048;-72
2022/07/02 11:26:07;;;;;;;2.35;0.40;;;24.60;90.90;;;;;;6299134;28;20052;-72
2022/07/02 11:29:10;;;;;;;0.73;0.23;;;24.70;91.10;;;;;;6298289;28;20545;-71
2022/07/02 11:32:12;;;;;;;1.55;0.40;;;24.60;90.90;;;;;;6298269;28;20063;-72
2022/07/02 11:35:17;;;;;;;1.15;0.40;;;24.50;91.30;;;;;;6298278;28;20048;-73
2022/07/02 11:38:19;;;;;;;2.78;0.30;;;24.40;91.00;;;;;;6299233;28;20048;-72
2022/07/02 11:41:24;;;;;;;2.90;0.55;;;24.30;91.10;;;;;;6298796;28;20105;-72
2022/07/02 11:44:28;;;;;;;1.02;0.40;;;24.30;91.60;;;;;;6298138;28;20059;-72
2022/07/02 11:47:30;;;;;;;2.65;0.60;;;24.30;91.60;;;;;;6298635;28;20409;-72
2022/07/02 11:50:35;;;;;;;0.93;0.22;;;24.20;91.50;;;;;;6298808;28;20338;-72
2022/07/02 11:53:37;;;;;;;1.33;0.43;;;24.10;91.50;;;;;;6276485;28;20045;-72
2022/07/02 11:56:40;;;;;;;2.85;0.52;;;24.20;92.00;;;;;;6274189;28;20045;-72
2022/07/02 11:59:50;;;;;;;1.87;0.40;;;24.40;91.20;;;;;;6291051;28;20055;-72
2022/07/02 12:02:52;;;;;;;2.42;0.43;;;24.60;91.70;;;;;;6296823;28;20087;-72
2022/07/02 12:05:57;;;;;;;0.85;0.40;;;24.80;91.30;;;;;;6298800;28;20049;-72
2022/07/02 12:09:00;;;;;;;1.60;0.40;;;24.80;90.90;;;;;;6297419;28;20163;-72
2022/07/02 12:12:02;;;;;;;1.05;0.40;;;24.70;90.90;;;;;;6298369;28;20052;-71
2022/07/02 12:15:05;;;;;;;1.83;0.50;;;24.60;91.20;;;;;;6298108;28;20114;-73
2022/07/02 12:18:16;;;;;;;2.28;0.70;;;24.60;91.20;;;;;;6298200;28;20041;-72
2022/07/02 12:21:20;;;;;;;2.05;0.77;;;24.60;91.10;;;;;;6296092;28;20473;-72
2022/07/02 12:24:24;;;;;;;2.00;0.40;;;24.50;91.40;;;;;;6330605;28;20052;-72
2022/07/02 12:27:26;;;;;;;2.90;0.90;;;24.60;91.60;;;;;;6297640;28;20045;-72
2022/07/02 12:30:27;;;;;;;1.13;0.40;;;24.70;91.20;;;;;;6296710;28;20076;-72
2022/07/02 12:33:33;;;;;;;1.40;0.40;;;24.90;91.40;;;;;;6297506;28;20044;-72
2022/07/02 12:36:46;;;;;;;1.15;0.40;;;24.90;91.30;;;;;;6296591;28;20422;-73
2022/07/02 12:39:49;;;;;;;3.40;0.68;;;25.00;91.20;;;;;;6298058;28;20055;-73
2022/07/02 12:42:52;;;;;;;3.67;0.60;;;24.90;90.90;;;;;;6297475;28;20052;-72
2022/07/02 12:46:05;;;;;;;2.28;0.50;;;24.90;90.50;;;;;;6297942;28;20045;-72
2022/07/02 12:49:15;;;;;;;2.47;0.75;;;24.90;90.90;;;;;;6297297;28;20044;-72
2022/07/02 12:52:18;;;;;;;2.25;0.50;;;24.90;90.40;;;;;;6297239;28;20056;-72
2022/07/02 12:55:22;;;;;;;1.85;0.52;;;24.80;90.20;;;;;;6297601;28;20056;-72
2022/07/02 12:58:25;;;;;;;3.20;0.77;;;24.80;90.90;;;;;;6297201;28;20400;-72
2022/07/02 13:01:27;;;;;;;1.73;0.50;;;24.80;90.30;;;;;;6297167;28;20125;-72
2022/07/02 13:04:29;;;;;;;2.20;0.40;;;25.00;90.90;;;;;;6297289;28;20112;-72
2022/07/02 13:07:32;;;;;;;2.20;0.68;;;25.00;90.90;;;;;;6296751;28;20057;-72
2022/07/02 13:10:34;;;;;;;1.70;0.70;;;25.00;90.90;;;;;;6295595;28;20054;-73
2022/07/02 13:13:36;;;;;;;2.95;0.50;;;25.20;90.70;;;;;;6297038;28;20044;-72
2022/07/02 13:16:38;;;;;;;1.83;0.82;;;25.30;90.60;;;;;;6295876;28;20044;-72
2022/07/02 13:19:42;;;;;;;2.00;0.63;;;25.10;90.80;;;;;;6290712;28;20040;-72
2022/07/02 13:22:45;;;;;;;5.40;0.77;;;24.80;90.60;;;;;;6272830;28;20041;-73
2022/07/02 13:25:47;;;;;;;1.45;0.47;;;24.60;90.60;;;;;;6295360;28;20064;-73
2022/07/02 13:28:49;;;;;;;2.88;0.50;;;24.50;91.70;;;;;;6296829;28;20122;-74
2022/07/02 13:31:51;;;;;;;2.17;0.70;;;24.60;91.70;;;;;;6295711;28;20048;-73
2022/07/02 13:34:53;;;;;;;1.40;0.40;;;24.70;91.50;;;;;;6297056;28;20052;-73
2022/07/02 13:37:57;;;;;;;2.65;0.57;;;24.60;91.70;;;;;;6296525;28;20044;-73
2022/07/02 13:40:59;;;;;;;3.22;0.70;;;24.60;91.50;;;;;;6296425;28;20057;-74
2022/07/02 13:44:01;;;;;;;2.22;0.60;;;24.60;91.80;;;;;;6296703;28;20044;-73
2022/07/02 13:47:03;;;;;;;1.95;0.68;;;24.60;91.70;;;;;;6296550;28;20063;-73
2022/07/02 13:50:06;;;;;;;2.58;0.70;;;24.70;91.70;;;;;;6296398;28;20052;-73
2022/07/02 13:53:10;;;;;;;1.08;0.30;;;24.90;91.60;;;;;;6296362;28;20078;-73
2022/07/02 13:56:12;;;;;;;0.70;0.40;;;24.90;91.70;;;;;;6294803;28;20133;-73
2022/07/02 13:59:14;;;;;;;1.13;0.32;;;25.00;91.60;;;;;;6296070;28;20060;-73
2022/07/02 14:02:16;;;;;;;1.00;0.50;;;25.30;91.40;;;;;;6294824;28;20048;-73
2022/07/02 14:05:18;;;;;;;1.42;0.40;;;25.40;90.90;;;;;;6296031;28;20045;-73
2022/07/02 14:08:21;;;;;;;1.25;0.47;;;25.60;91.20;;;;;;6295970;28;20547;-73
2022/07/02 14:11:23;;;;;;;;;;;25.60;90.70;;;;;;6295260;28;20048;-73
2022/07/02 14:14:25;;;;;;;1.05;0.50;;;25.70;91.10;;;;;;6295946;28;20530;-72
2022/07/02 14:17:27;;;;;;;1.85;0.68;;;25.70;91.10;;;;;;6294241;28;20044;-73
2022/07/02 14:20:29;;;;;;;2.33;0.47;;;25.70;91.10;;;;;;6290448;28;20177;-73
2022/07/02 14:23:32;;;;;;;1.70;0.50;;;25.60;91.10;;;;;;6294845;28;20517;-73
2022/07/02 14:26:34;;;;;;;1.80;0.57;;;25.60;91.30;;;;;;6296122;28;20053;-72
2022/07/02 14:29:36;;;;;;;2.25;0.50;;;25.30;91.30;;;;;;6296084;28;20490;-72
2022/07/02 14:32:38;;;;;;;2.80;0.90;;;25.20;91.20;;;;;;6294706;28;20052;-73
2022/07/02 14:35:40;;;;;;;1.33;0.35;;;25.10;91.10;;;;;;6296198;28;20051;-72
2022/07/02 14:38:44;;;;;;;3.15;0.75;;;25.00;91.70;;;;;;6295804;28;20052;-73
2022/07/02 14:41:46;;;;;;;1.83;0.40;;;24.90;92.30;;;;;;6295401;28;20421;-73
2022/07/02 14:44:48;;;;;;;2.17;0.50;;;24.90;92.20;;;;;;6299512;28;20052;-72
2022/07/02 14:47:50;;;;;;;2.55;0.50;;;25.00;92.00;;;;;;6300157;28;20127;-73
2022/07/02 14:50:52;;;;;;;1.55;0.70;;;25.00;92.10;;;;;;6286208;28;20049;-73
2022/07/02 14:53:56;;;;;;;1.58;0.45;;;25.00;92.10;;;;;;6274085;28;20068;-73
2022/07/02 14:56:58;;;;;;;1.02;0.40;;;25.10;91.80;;;;;;6275735;28;20123;-74
2022/07/02 15:00:00;;;;;;;2.17;0.80;;;25.00;92.10;;;;;;6275214;28;20413;-73
2022/07/02 15:03:02;;;;;;;4.25;0.80;;;24.90;91.80;;;;;;6273858;28;20053;-73
2022/07/02 15:06:05;;;;;;;1.17;0.85;;;24.90;91.80;;;;;;6287080;28;20045;-73
2022/07/02 15:09:10;;;;;;;1.20;0.52;;;24.90;92.20;;;;;;6299014;28;20190;-74
2022/07/02 15:12:12;;;;;;;4.28;1.30;;;24.80;92.20;;;;;;6298443;28;20183;-73
2022/07/02 15:18:36;;;;;;;3.17;0.75;;;24.90;92.10;;;;;;6297277;28;20334;-73
2022/07/02 15:21:45;;;;;;;2.80;0.70;;;24.90;92.40;;;;;;6298293;28;20059;-73
2022/07/02 15:24:51;;;;;;;1.90;0.60;;;24.70;91.90;;;;;;6274367;28;20057;-73
2022/07/02 15:27:55;;;;;;;3.00;0.90;;;24.60;92.80;;;;;;6274778;28;20051;-74
2022/07/02 15:30:57;;;;;;;2.47;0.70;;;24.50;91.70;;;;;;6274484;28;20041;-73
2022/07/02 15:34:00;;;;;;;1.75;0.50;;;24.40;92.30;;;;;;6273352;28;20486;-73
2022/07/02 15:37:03;;;;;;;2.25;0.82;;;24.40;92.80;;;;;;6273424;28;20052;-74
2022/07/02 15:40:08;;;;;;;2.73;1.03;;;24.60;92.90;;;;;;6286036;28;20055;-73
2022/07/02 15:43:12;;;;;;;3.92;1.20;;;24.70;92.50;;;;;;6299294;28;20051;-74
2022/07/02 15:46:13;;;;;;;;;;;24.90;92.20;;;;;;6298611;28;20501;-73
2022/07/02 15:49:16;;;;;;;2.40;0.55;;;24.80;92.00;;;;;;6298416;28;20316;-73
2022/07/02 15:52:25;;;;;;;0.85;0.60;;;24.80;92.10;;;;;;6298688;28;20131;-73
2022/07/02 15:55:33;;;;;;;4.95;1.10;;;24.80;91.40;;;;;;6296523;28;20048;-74
2022/07/02 15:58:39;;;;;;;3.53;0.73;;;24.80;92.00;;;;;;6297766;28;20128;-73
2022/07/02 16:01:42;;;;;;;1.05;0.50;;;24.80;91.40;;;;;;6299013;28;20048;-73
2022/07/02 16:04:48;;;;;;;2.35;0.68;;;24.60;92.50;;;;;;6297332;28;20064;-73